Time;durP1;ratioP1;P1;durP2;ratioP2;P2;SDS_P1;SDS_P2;PMS_P1;PMS_P2;Temp;Humidity;BMP_temperature;BMP_pressure;BME280_temperature;BME280_humidity;BME280_pressure;Samples;Min_cycle;Max_cycle;Signal;HPM_P1;HPM_P2
2023/10/07 00:00:27;;;;;;;1.58;1.00;;;16.60;99.90;;;;;;4994187;28;20029;-94
2023/10/07 00:02:54;;;;;;;2.05;1.27;;;16.60;99.90;;;;;;4993444;28;20026;-92
2023/10/07 00:05:26;;;;;;;3.80;0.80;;;16.50;99.90;;;;;;4996122;28;20117;-94
2023/10/07 00:08:00;;;;;;;2.85;1.23;;;16.50;99.90;;;;;;4996604;28;20050;-92
2023/10/07 00:10:30;;;;;;;2.00;1.38;;;16.50;99.90;;;;;;4998874;28;20018;-93
2023/10/07 00:12:57;;;;;;;2.42;1.40;;;16.50;99.90;;;;;;4998210;28;20151;-94
2023/10/07 00:15:28;;;;;;;2.08;0.98;;;16.50;99.90;;;;;;4998154;28;20088;-91
2023/10/07 00:17:57;;;;;;;1.63;1.30;;;16.50;99.90;;;;;;4997935;28;20518;-92
2023/10/07 00:20:24;;;;;;;2.72;1.20;;;16.50;99.90;;;;;;4999039;28;20023;-92
2023/10/07 00:22:54;;;;;;;2.95;1.75;;;16.50;99.90;;;;;;4998584;28;20026;-91
2023/10/07 00:25:20;;;;;;;6.68;2.67;;;16.40;99.90;;;;;;4997733;28;20517;-95
2023/10/07 00:27:48;;;;;;;3.53;1.50;;;16.40;99.90;;;;;;4997793;28;20027;-92
2023/10/07 00:30:20;;;;;;;2.75;1.52;;;16.40;99.90;;;;;;4997252;28;20254;-92
2023/10/07 00:32:46;;;;;;;2.78;1.65;;;16.40;99.90;;;;;;4997039;28;20080;-94
2023/10/07 00:35:12;;;;;;;4.30;1.77;;;16.40;99.90;;;;;;4997400;28;20019;-90
2023/10/07 00:37:43;;;;;;;8.43;2.00;;;16.40;99.90;;;;;;4999456;28;20038;-92
2023/10/07 00:40:14;;;;;;;7.88;2.00;;;16.30;99.90;;;;;;5018009;28;20013;-92
2023/10/07 00:42:47;;;;;;;4.88;2.10;;;16.30;99.90;;;;;;5020358;28;20023;-90
2023/10/07 00:45:14;;;;;;;7.10;2.25;;;16.30;99.90;;;;;;5017549;28;20022;-91
2023/10/07 00:47:41;;;;;;;6.50;2.03;;;16.30;99.90;;;;;;4992141;28;20066;-91
2023/10/07 00:50:09;;;;;;;7.85;2.50;;;16.30;99.90;;;;;;5002791;28;20102;-92
2023/10/07 00:55:31;;;;;;;7.18;2.25;;;16.30;99.90;;;;;;4998749;28;20042;-89
2023/10/07 01:00:55;;;;;;;2.42;1.42;;;16.20;99.90;;;;;;4997272;28;20060;-92
2023/10/07 01:08:37;;;;;;;3.88;2.00;;;16.10;99.90;;;;;;4997580;28;20015;-91
2023/10/07 01:11:19;;;;;;;3.33;1.83;;;16.10;99.90;;;;;;4996399;28;20057;-92
2023/10/07 01:13:51;;;;;;;4.15;2.08;;;16.10;99.90;;;;;;5012298;28;20113;-92
2023/10/07 01:16:40;;;;;;;5.32;2.20;;;16.00;99.90;;;;;;4994972;28;20026;-94
2023/10/07 01:21:40;;;;;;;3.78;2.10;;;16.00;99.90;;;;;;4997028;28;20023;-92
2023/10/07 01:24:06;;;;;;;3.38;2.00;;;15.90;99.90;;;;;;4995985;28;20050;-91
2023/10/07 01:26:39;;;;;;;6.28;1.85;;;15.90;99.90;;;;;;4995958;28;20052;-91
2023/10/07 01:29:13;;;;;;;4.22;1.95;;;15.80;99.90;;;;;;4996123;28;20030;-92
2023/10/07 01:31:59;;;;;;;5.65;1.92;;;15.80;99.90;;;;;;4995602;28;20022;-91
2023/10/07 01:34:30;;;;;;;6.38;1.77;;;15.80;99.90;;;;;;4995154;28;20030;-92
2023/10/07 01:37:00;;;;;;;5.30;2.15;;;15.80;99.90;;;;;;4996202;28;20034;-92
2023/10/07 01:39:40;;;;;;;4.85;2.13;;;15.70;99.90;;;;;;4995460;28;20054;-92
2023/10/07 01:42:13;;;;;;;9.85;2.30;;;15.70;99.90;;;;;;4994408;28;20034;-93
2023/10/07 01:44:41;;;;;;;7.35;2.20;;;15.70;99.90;;;;;;4995434;28;20081;-92
2023/10/07 01:47:16;;;;;;;7.35;2.38;;;15.60;99.90;;;;;;4995738;28;20089;-91
2023/10/07 01:49:43;;;;;;;5.32;1.90;;;15.60;99.90;;;;;;4998185;28;20222;-92
2023/10/07 01:52:11;;;;;;;6.18;2.10;;;15.50;99.90;;;;;;5012360;28;20030;-92
2023/10/07 01:54:37;;;;;;;8.73;2.38;;;15.60;99.90;;;;;;4997869;28;20085;-92
2023/10/07 01:57:06;;;;;;;9.25;2.45;;;15.60;99.90;;;;;;4995642;28;20117;-93
2023/10/07 01:59:31;;;;;;;3.63;2.17;;;15.50;99.90;;;;;;4994199;28;20026;-91
2023/10/07 02:02:06;;;;;;;5.53;2.00;;;15.50;99.90;;;;;;4995372;28;20034;-93
2023/10/07 02:04:36;;;;;;;5.10;2.22;;;15.50;99.90;;;;;;4993924;28;20029;-91
2023/10/07 02:07:02;;;;;;;5.47;2.45;;;15.50;99.90;;;;;;4995515;28;20026;-92
2023/10/07 02:09:35;;;;;;;8.88;2.45;;;15.50;99.90;;;;;;4995079;28;20026;-94
2023/10/07 02:12:03;;;;;;;6.13;2.05;;;15.50;99.90;;;;;;4995151;28;20027;-90
2023/10/07 02:14:28;;;;;;;7.10;2.60;;;15.50;99.90;;;;;;4994643;28;20027;-90
2023/10/07 02:16:56;;;;;;;6.03;2.22;;;15.60;99.90;;;;;;4994326;28;20038;-91
2023/10/07 02:19:29;;;;;;;3.85;1.98;;;15.50;99.90;;;;;;5004053;28;20483;-93
2023/10/07 02:21:59;;;;;;;7.05;2.13;;;15.50;99.90;;;;;;5018958;28;20029;-90
2023/10/07 02:24:29;;;;;;;8.93;2.25;;;15.50;99.90;;;;;;5001266;28;20022;-93
2023/10/07 02:27:04;;;;;;;8.53;2.73;;;15.50;99.90;;;;;;5000435;28;20034;-92
2023/10/07 02:29:30;;;;;;;8.38;2.78;;;15.40;99.90;;;;;;4995584;28;20635;-92
2023/10/07 02:32:07;;;;;;;5.78;2.47;;;15.40;99.90;;;;;;4995322;28;20054;-93
2023/10/07 02:34:34;;;;;;;7.10;2.30;;;15.40;99.90;;;;;;4995559;28;20034;-91
2023/10/07 02:37:20;;;;;;;7.03;3.05;;;15.30;99.90;;;;;;4995000;28;20034;-92
2023/10/07 02:39:46;;;;;;;4.75;2.03;;;15.30;99.90;;;;;;4994809;28;20076;-92
2023/10/07 02:42:22;;;;;;;4.90;2.10;;;15.20;99.90;;;;;;4995406;28;20491;-92
2023/10/07 02:45:19;;;;;;;8.82;2.35;;;15.20;99.90;;;;;;4994295;28;20022;-92
2023/10/07 02:47:50;;;;;;;9.40;2.78;;;15.20;99.90;;;;;;4995310;28;20038;-93
2023/10/07 02:50:17;;;;;;;10.38;3.50;;;15.20;99.90;;;;;;4994413;28;20086;-91
2023/10/07 02:52:46;;;;;;;10.80;3.45;;;15.10;99.90;;;;;;4993845;28;20486;-93
2023/10/07 02:57:55;;;;;;;7.20;2.65;;;15.10;99.90;;;;;;4995202;28;20140;-93
2023/10/07 03:00:35;;;;;;;13.43;3.78;;;15.00;99.90;;;;;;4994194;28;20029;-92
2023/10/07 03:03:31;;;;;;;8.20;2.80;;;15.00;99.90;;;;;;4994564;28;20022;-91
2023/10/07 03:05:59;;;;;;;12.07;2.70;;;15.00;99.90;;;;;;5001355;28;20046;-93
2023/10/07 03:11:11;;;;;;;12.18;3.42;;;15.00;99.90;;;;;;5009124;28;20045;-93
2023/10/07 03:13:45;;;;;;;7.97;2.90;;;14.90;99.90;;;;;;5015066;28;20014;-92
2023/10/07 03:19:19;;;;;;;8.10;3.05;;;14.90;99.90;;;;;;4997803;28;20037;-91
2023/10/07 03:24:14;;;;;;;6.88;2.90;;;14.90;99.90;;;;;;4995424;28;20083;-92
2023/10/07 03:26:45;;;;;;;10.52;2.63;;;14.80;99.90;;;;;;4994853;28;20034;-92
2023/10/07 03:29:29;;;;;;;6.15;3.17;;;14.80;99.90;;;;;;4994684;28;20030;-93
2023/10/07 03:31:55;;;;;;;6.15;2.60;;;14.80;99.90;;;;;;4995004;28;20030;-92
2023/10/07 03:34:20;;;;;;;6.90;2.53;;;14.80;99.90;;;;;;4994287;28;20030;-92
2023/10/07 03:39:24;;;;;;;9.20;2.97;;;14.70;99.90;;;;;;4994718;28;20038;-92
2023/10/07 03:41:59;;;;;;;7.25;2.80;;;14.70;99.90;;;;;;4994081;28;20033;-92
2023/10/07 03:44:25;;;;;;;9.90;3.13;;;14.70;99.90;;;;;;4993904;28;20026;-92
2023/10/07 03:46:57;;;;;;;7.53;2.60;;;14.60;99.90;;;;;;4993423;28;20141;-92
2023/10/07 03:49:33;;;;;;;11.10;2.85;;;14.60;99.90;;;;;;4994105;28;20022;-93
2023/10/07 03:52:12;;;;;;;8.55;3.22;;;14.60;99.90;;;;;;4993547;28;20044;-92
2023/10/07 03:54:40;;;;;;;5.15;3.03;;;14.60;99.90;;;;;;4995809;28;20018;-93
2023/10/07 03:57:07;;;;;;;8.20;3.20;;;14.60;99.90;;;;;;4995612;28;20031;-92
2023/10/07 03:59:39;;;;;;;13.52;4.55;;;14.60;99.90;;;;;;4993429;28;20057;-93
2023/10/07 04:04:58;;;;;;;13.25;3.22;;;14.50;99.90;;;;;;4994424;28;20095;-92
2023/10/07 04:07:25;;;;;;;9.90;4.50;;;14.50;99.90;;;;;;4992932;28;20030;-92
2023/10/07 04:09:51;;;;;;;11.10;3.80;;;14.50;99.90;;;;;;4993733;28;20091;-91
2023/10/07 04:12:16;;;;;;;7.90;2.92;;;14.50;99.90;;;;;;4993175;28;20025;-93
2023/10/07 04:14:44;;;;;;;6.18;3.42;;;14.50;99.90;;;;;;4993090;28;20023;-92
2023/10/07 04:17:12;;;;;;;10.43;3.22;;;14.50;99.90;;;;;;4990186;28;20030;-93
2023/10/07 04:19:42;;;;;;;7.18;2.85;;;14.40;99.90;;;;;;4993068;28;20502;-94
2023/10/07 04:22:11;;;;;;;11.88;3.92;;;14.40;99.90;;;;;;4993162;28;20026;-92
2023/10/07 04:24:44;;;;;;;9.45;4.95;;;14.40;99.90;;;;;;4993112;28;20117;-93
2023/10/07 04:27:18;;;;;;;8.10;4.18;;;14.40;99.90;;;;;;4993450;28;20044;-91
2023/10/07 04:29:46;;;;;;;10.80;4.72;;;14.40;99.90;;;;;;4992612;28;20471;-92
2023/10/07 04:32:20;;;;;;;10.57;4.20;;;14.40;99.90;;;;;;4990411;28;20031;-93
2023/10/07 04:35:06;;;;;;;14.52;4.60;;;14.30;99.90;;;;;;4992380;28;20026;-92
2023/10/07 04:37:47;;;;;;;9.43;4.25;;;14.30;99.90;;;;;;4993527;28;20521;-92
2023/10/07 04:43:00;;;;;;;6.38;3.45;;;14.40;99.90;;;;;;4993413;28;20152;-93
2023/10/07 04:45:37;;;;;;;9.63;3.78;;;14.30;99.90;;;;;;4992661;28;20142;-92
2023/10/07 04:48:24;;;;;;;18.23;4.72;;;14.40;99.90;;;;;;4993442;28;20042;-93
2023/10/07 04:51:03;;;;;;;11.07;4.65;;;14.30;99.90;;;;;;4994218;28;20057;-93
2023/10/07 04:53:40;;;;;;;8.75;4.40;;;14.30;99.90;;;;;;4997424;28;20022;-92
2023/10/07 04:56:08;;;;;;;8.50;3.28;;;14.30;99.90;;;;;;4996421;28;20018;-92
2023/10/07 04:58:34;;;;;;;7.30;3.45;;;14.30;99.90;;;;;;4995979;28;20046;-93
2023/10/07 05:01:22;;;;;;;10.50;3.85;;;14.30;99.90;;;;;;4996600;28;20145;-92
2023/10/07 05:03:51;;;;;;;9.75;4.18;;;14.30;99.90;;;;;;4998941;28;20036;-92
2023/10/07 05:06:18;;;;;;;9.88;3.83;;;14.30;99.90;;;;;;5012610;28;20019;-90
2023/10/07 05:08:45;;;;;;;11.30;4.13;;;14.30;99.90;;;;;;5009201;28;20026;-92
2023/10/07 05:11:17;;;;;;;16.17;4.50;;;14.30;99.90;;;;;;5003132;28;20023;-94
2023/10/07 05:13:44;;;;;;;13.18;4.70;;;14.30;99.90;;;;;;5012094;28;20011;-93
2023/10/07 05:16:11;;;;;;;12.90;4.85;;;14.30;99.90;;;;;;5005235;28;20022;-93
2023/10/07 05:18:38;;;;;;;11.98;4.10;;;14.30;99.90;;;;;;5001073;28;20042;-92
2023/10/07 05:21:06;;;;;;;8.77;3.53;;;14.30;99.90;;;;;;5000187;28;20467;-91
2023/10/07 05:23:34;;;;;;;10.07;3.90;;;14.30;99.90;;;;;;5004476;28;20102;-93
2023/10/07 05:26:03;;;;;;;12.82;4.47;;;14.30;99.90;;;;;;5004127;28;20022;-91
2023/10/07 05:28:32;;;;;;;8.93;3.90;;;14.30;99.90;;;;;;5004194;28;20098;-92
2023/10/07 05:31:00;;;;;;;12.82;4.50;;;14.30;99.90;;;;;;5003977;28;20022;-93
2023/10/07 05:33:28;;;;;;;8.30;4.13;;;14.30;99.90;;;;;;5003795;28;20034;-91
2023/10/07 05:36:29;;;;;;;8.43;3.25;;;14.30;99.90;;;;;;5002865;28;20061;-91
2023/10/07 05:38:53;;;;;;;11.95;4.50;;;14.20;99.90;;;;;;4996609;28;20030;-93
2023/10/07 05:41:24;;;;;;;12.70;4.65;;;14.30;99.90;;;;;;4998304;28;20021;-91
2023/10/07 05:43:50;;;;;;;13.90;3.95;;;14.20;99.90;;;;;;4997432;28;20030;-92
2023/10/07 05:46:19;;;;;;;13.65;4.75;;;14.20;99.90;;;;;;4996611;28;20068;-93
2023/10/07 05:48:45;;;;;;;12.20;3.85;;;14.20;99.90;;;;;;4996597;28;20022;-94
2023/10/07 05:51:12;;;;;;;12.95;5.03;;;14.20;99.90;;;;;;4996980;28;20033;-93
2023/10/07 05:53:48;;;;;;;9.43;4.30;;;14.20;99.90;;;;;;4995747;28;20025;-92
2023/10/07 05:56:14;;;;;;;16.73;4.45;;;14.10;99.90;;;;;;4996507;28;20383;-92
2023/10/07 05:58:40;;;;;;;10.27;4.55;;;14.10;99.90;;;;;;4998493;28;20037;-92
2023/10/07 06:01:11;;;;;;;7.22;3.90;;;14.10;99.90;;;;;;4997528;28;20109;-91
2023/10/07 06:03:37;;;;;;;7.95;3.88;;;14.10;99.90;;;;;;4994560;28;20026;-92
2023/10/07 06:06:04;;;;;;;10.13;4.47;;;14.10;99.90;;;;;;4995525;28;20110;-92
2023/10/07 06:08:32;;;;;;;10.90;4.18;;;14.10;99.90;;;;;;4989622;28;20026;-91
2023/10/07 06:10:59;;;;;;;8.38;4.65;;;14.10;99.90;;;;;;4994707;28;20026;-90
2023/10/07 06:13:27;;;;;;;8.63;4.38;;;14.00;99.90;;;;;;4995169;28;20030;-92
2023/10/07 06:15:55;;;;;;;17.38;5.70;;;14.00;99.90;;;;;;4993903;28;20030;-94
2023/10/07 06:18:21;;;;;;;12.77;5.20;;;14.00;99.90;;;;;;4991352;28;20045;-92
2023/10/07 06:20:51;;;;;;;13.25;5.28;;;14.00;99.90;;;;;;4993980;28;20028;-92
2023/10/07 06:23:24;;;;;;;7.45;4.45;;;14.00;99.90;;;;;;4994511;28;20045;-92
2023/10/07 06:25:51;;;;;;;14.02;5.60;;;14.00;99.90;;;;;;4994008;28;20026;-94
2023/10/07 06:31:10;;;;;;;14.02;5.93;;;14.00;99.90;;;;;;4995711;28;20054;-92
2023/10/07 06:33:39;;;;;;;11.52;5.90;;;14.00;99.90;;;;;;4999299;28;20033;-92
2023/10/07 06:36:08;;;;;;;14.73;5.80;;;14.00;99.90;;;;;;4991541;28;20030;-93
2023/10/07 06:38:34;;;;;;;16.58;5.63;;;14.10;99.90;;;;;;4995554;28;20027;-91
2023/10/07 06:41:09;;;;;;;16.55;5.85;;;14.00;99.90;;;;;;4996341;28;20383;-92
2023/10/07 06:43:37;;;;;;;13.27;5.72;;;14.10;99.90;;;;;;5016392;28;20041;-90
2023/10/07 06:46:02;;;;;;;13.00;5.03;;;14.10;99.90;;;;;;5017066;28;20106;-93
2023/10/07 06:48:30;;;;;;;16.10;5.65;;;14.10;99.90;;;;;;5015494;28;20022;-93
2023/10/07 06:50:56;;;;;;;14.82;5.20;;;14.10;99.90;;;;;;4996494;28;20113;-92
2023/10/07 06:53:22;;;;;;;12.48;5.43;;;14.20;99.90;;;;;;4993724;28;20057;-92
2023/10/07 06:55:51;;;;;;;16.20;6.13;;;14.20;99.90;;;;;;4993315;28;20090;-91
2023/10/07 06:58:22;;;;;;;13.35;5.18;;;14.20;99.90;;;;;;4993466;28;20081;-92
2023/10/07 07:00:52;;;;;;;18.63;5.50;;;14.20;99.90;;;;;;4993884;28;20023;-92
2023/10/07 07:03:20;;;;;;;13.27;5.65;;;14.20;99.90;;;;;;4987645;28;20029;-93
2023/10/07 07:05:46;;;;;;;12.63;5.43;;;14.30;99.90;;;;;;4994519;28;20073;-92
2023/10/07 07:08:15;;;;;;;12.23;5.43;;;14.30;99.90;;;;;;4994264;28;20076;-92
2023/10/07 07:10:41;;;;;;;10.95;5.15;;;14.30;99.90;;;;;;4992900;28;20034;-92
2023/10/07 07:13:13;;;;;;;16.75;6.38;;;14.30;99.90;;;;;;4991569;28;20543;-91
2023/10/07 07:15:43;;;;;;;18.80;6.13;;;14.40;99.90;;;;;;4989396;28;20033;-91
2023/10/07 07:23:24;;;;;;;13.23;6.03;;;14.40;99.90;;;;;;4991976;28;20467;-92
2023/10/07 07:25:59;;;;;;;14.75;6.43;;;14.40;99.90;;;;;;5010030;28;20029;-93
2023/10/07 07:28:27;;;;;;;13.18;6.13;;;14.40;99.90;;;;;;4997980;28;20026;-91
2023/10/07 07:30:57;;;;;;;10.68;5.65;;;14.50;99.90;;;;;;5007937;28;20031;-91
2023/10/07 07:33:36;;;;;;;14.30;6.53;;;14.50;99.90;;;;;;4994893;28;20030;-94
2023/10/07 07:36:19;;;;;;;22.90;7.10;;;14.50;99.90;;;;;;4993834;28;20110;-93
2023/10/07 07:38:46;;;;;;;12.98;5.45;;;14.50;99.90;;;;;;4992965;28;20044;-92
2023/10/07 07:41:29;;;;;;;14.82;5.55;;;14.60;99.90;;;;;;4993257;28;20072;-93
2023/10/07 07:44:02;;;;;;;10.23;5.32;;;14.60;99.90;;;;;;4993094;28;20121;-93
2023/10/07 07:46:51;;;;;;;13.43;5.75;;;14.60;99.90;;;;;;4993187;28;20047;-95
2023/10/07 07:49:17;;;;;;;13.73;5.07;;;14.60;99.90;;;;;;4994133;28;20022;-92
2023/10/07 07:51:44;;;;;;;16.45;6.32;;;14.60;99.90;;;;;;4993601;28;20076;-92
2023/10/07 07:54:14;;;;;;;16.90;6.90;;;14.70;99.90;;;;;;4993634;28;20038;-92
2023/10/07 07:56:42;;;;;;;15.80;7.28;;;14.70;99.90;;;;;;4993641;28;20026;-94
2023/10/07 07:59:14;;;;;;;13.45;6.00;;;14.70;99.90;;;;;;4994874;28;20027;-93
2023/10/07 08:02:12;;;;;;;10.27;4.53;;;14.70;99.90;;;;;;4996663;28;20475;-93
2023/10/07 08:04:39;;;;;;;19.38;7.05;;;14.80;99.90;;;;;;4996263;28;20030;-92
2023/10/07 08:07:18;;;;;;;15.77;5.40;;;14.80;99.90;;;;;;4993486;28;20029;-93
2023/10/07 08:09:46;;;;;;;14.35;5.32;;;14.80;99.90;;;;;;4988345;28;20372;-92
2023/10/07 08:12:18;;;;;;;15.57;6.03;;;14.80;99.90;;;;;;4990561;28;20022;-91
2023/10/07 08:14:47;;;;;;;15.45;5.20;;;14.90;99.90;;;;;;4993641;28;20057;-94
2023/10/07 08:17:19;;;;;;;15.88;5.78;;;14.90;99.90;;;;;;4990131;28;20026;-92
2023/10/07 08:19:49;;;;;;;17.67;6.30;;;15.00;99.90;;;;;;4992873;28;20503;-92
2023/10/07 08:22:18;;;;;;;20.60;6.60;;;15.00;99.90;;;;;;5007356;28;20364;-92
2023/10/07 08:24:44;;;;;;;14.52;6.03;;;15.10;99.90;;;;;;4992884;28;20176;-91
2023/10/07 08:27:43;;;;;;;17.65;6.10;;;15.20;99.90;;;;;;4995097;28;20479;-92
2023/10/07 08:30:05;;;;;;;25.40;6.60;;;15.30;99.90;;;;;;5002613;28;20109;-91
2023/10/07 08:32:43;;;;;;;18.33;7.00;;;15.40;99.90;;;;;;5003781;28;20034;-91
2023/10/07 08:35:15;;;;;;;13.65;6.03;;;15.50;99.90;;;;;;5006212;28;20026;-92
2023/10/07 08:37:47;;;;;;;12.35;5.55;;;15.60;99.90;;;;;;5000432;28;20054;-93
2023/10/07 08:40:26;;;;;;;14.80;6.03;;;15.70;99.90;;;;;;5002372;28;20022;-91
2023/10/07 08:43:00;;;;;;;15.52;5.43;;;15.70;99.90;;;;;;5014589;28;20122;-93
2023/10/07 08:45:39;;;;;;;9.93;5.95;;;15.80;99.90;;;;;;4992897;28;20050;-93
2023/10/07 08:48:15;;;;;;;15.30;5.28;;;15.80;99.90;;;;;;4998532;28;20046;-91
2023/10/07 08:50:58;;;;;;;14.55;5.95;;;15.80;99.90;;;;;;4997402;28;20069;-93
2023/10/07 08:53:25;;;;;;;16.38;6.57;;;15.90;99.90;;;;;;4998220;28;20206;-93
2023/10/07 08:55:56;;;;;;;17.67;5.43;;;16.00;99.90;;;;;;4997090;28;20495;-92
2023/10/07 08:58:27;;;;;;;16.98;6.40;;;16.10;99.90;;;;;;4996812;28;20035;-92
2023/10/07 09:00:53;;;;;;;;;;;16.10;99.90;;;;;;4997132;28;20018;-92
2023/10/07 09:03:19;;;;;;;11.50;5.55;;;16.10;99.90;;;;;;4996260;28;19959;-93
2023/10/07 09:05:48;;;;;;;18.88;6.03;;;16.20;99.90;;;;;;4996592;28;20030;-91
2023/10/07 09:08:15;;;;;;;17.35;5.93;;;16.20;99.90;;;;;;4996815;28;20026;-93
2023/10/07 09:10:45;;;;;;;21.77;6.32;;;16.20;99.90;;;;;;4999444;28;20026;-92
2023/10/07 09:13:19;;;;;;;18.00;5.88;;;16.20;99.90;;;;;;4998654;28;20022;-92
2023/10/07 09:15:52;;;;;;;15.73;5.40;;;16.30;99.90;;;;;;4994118;28;20038;-93
2023/10/07 09:18:23;;;;;;;15.18;5.13;;;16.30;99.90;;;;;;4995783;28;20058;-92
2023/10/07 09:20:50;;;;;;;18.48;6.10;;;16.30;99.90;;;;;;4995688;28;20529;-93
2023/10/07 09:23:19;;;;;;;16.85;5.57;;;16.40;99.90;;;;;;4996340;28;20462;-92
2023/10/07 09:25:52;;;;;;;15.65;5.85;;;16.40;99.90;;;;;;5011753;28;20033;-92
2023/10/07 09:28:31;;;;;;;14.27;5.55;;;16.40;99.90;;;;;;4996546;28;20451;-94
2023/10/07 09:31:05;;;;;;;15.73;5.45;;;16.40;99.90;;;;;;4995900;28;20022;-92
2023/10/07 09:33:35;;;;;;;19.92;5.80;;;16.40;99.90;;;;;;4996373;28;20038;-93
2023/10/07 09:38:49;;;;;;;20.38;6.95;;;16.40;99.90;;;;;;4996677;28;20057;-92
2023/10/07 09:41:24;;;;;;;16.13;5.88;;;16.50;99.90;;;;;;5000808;28;20037;-93
2023/10/07 09:44:00;;;;;;;15.10;5.10;;;16.50;99.90;;;;;;5003222;28;20053;-91
2023/10/07 09:46:25;;;;;;;16.67;5.38;;;16.50;99.90;;;;;;5001686;28;20039;-92
2023/10/07 09:48:52;;;;;;;23.35;7.53;;;16.50;99.90;;;;;;5002514;28;20076;-93
2023/10/07 09:51:28;;;;;;;17.65;6.28;;;16.50;99.90;;;;;;5007254;28;20075;-92
2023/10/07 09:54:16;;;;;;;16.60;5.57;;;16.50;99.90;;;;;;5017348;28;20037;-91
2023/10/07 09:57:06;;;;;;;14.63;5.47;;;16.60;99.90;;;;;;5034344;28;20030;-92
2023/10/07 09:59:56;;;;;;;17.38;6.43;;;16.60;99.90;;;;;;5007707;28;20061;-93
2023/10/07 10:02:59;;;;;;;16.70;5.68;;;16.60;99.90;;;;;;5015360;28;20050;-94
2023/10/07 10:05:29;;;;;;;20.20;6.88;;;16.70;99.90;;;;;;5017987;28;20061;-92
2023/10/07 10:08:29;;;;;;;14.45;7.05;;;16.70;99.90;;;;;;5001023;28;20014;-92
2023/10/07 10:10:58;;;;;;;20.95;6.25;;;16.80;99.90;;;;;;5011291;28;20027;-91
2023/10/07 10:16:29;;;;;;;14.73;5.80;;;16.90;99.90;;;;;;4999584;28;20032;-91
2023/10/07 10:21:43;;;;;;;15.57;5.45;;;17.10;99.90;;;;;;5016822;28;20044;-91
2023/10/07 10:24:16;;;;;;;21.55;5.68;;;17.10;99.90;;;;;;5008405;28;20076;-91
2023/10/07 10:26:44;;;;;;;18.70;5.88;;;17.20;99.90;;;;;;4999489;28;20027;-91
2023/10/07 10:29:16;;;;;;;22.40;5.80;;;17.20;99.90;;;;;;4997893;28;20164;-91
2023/10/07 10:31:50;;;;;;;19.30;6.00;;;17.30;99.90;;;;;;4996693;28;20041;-93
2023/10/07 10:34:16;;;;;;;12.00;5.53;;;17.30;99.90;;;;;;4994652;28;20042;-92
2023/10/07 10:36:43;;;;;;;17.50;5.80;;;17.40;99.90;;;;;;4996315;28;20038;-91
2023/10/07 10:39:26;;;;;;;14.80;5.03;;;17.40;99.90;;;;;;4999677;28;20041;-92
2023/10/07 10:41:55;;;;;;;14.23;6.15;;;17.40;99.90;;;;;;5004700;28;20463;-93
2023/10/07 10:44:21;;;;;;;12.23;6.05;;;17.50;99.90;;;;;;4999850;28;20054;-93
2023/10/07 10:46:49;;;;;;;15.85;5.35;;;17.50;99.90;;;;;;4997527;28;20073;-92
2023/10/07 10:49:20;;;;;;;15.40;5.15;;;17.70;99.90;;;;;;5001757;28;20074;-92
2023/10/07 10:51:54;;;;;;;19.20;6.03;;;17.80;99.90;;;;;;5001054;28;20061;-93
2023/10/07 10:54:23;;;;;;;13.77;5.50;;;17.80;99.90;;;;;;5003398;28;20081;-92
2023/10/07 10:57:00;;;;;;;12.27;5.07;;;17.90;99.90;;;;;;5008244;28;20030;-93
2023/10/07 10:59:48;;;;;;;15.90;5.22;;;17.90;99.90;;;;;;5003183;28;20039;-93
2023/10/07 11:02:20;;;;;;;12.60;5.13;;;17.90;99.90;;;;;;4997067;28;20068;-90
2023/10/07 11:04:55;;;;;;;15.52;5.05;;;17.90;99.90;;;;;;4994520;28;20026;-89
2023/10/07 11:07:25;;;;;;;18.90;6.07;;;17.90;99.90;;;;;;4993865;28;20026;-90
2023/10/07 11:09:54;;;;;;;29.73;5.53;;;18.10;99.90;;;;;;4995425;28;20196;-90
2023/10/07 11:12:22;;;;;;;16.75;5.40;;;18.20;99.90;;;;;;4995415;28;20034;-89
2023/10/07 11:14:48;;;;;;;16.15;5.00;;;18.30;99.90;;;;;;4994388;28;20169;-90
2023/10/07 11:17:15;;;;;;;14.73;5.53;;;18.50;99.90;;;;;;4994634;28;20125;-90
2023/10/07 11:19:42;;;;;;;18.05;6.28;;;18.60;99.90;;;;;;4994364;28;20034;-89
2023/10/07 11:22:13;;;;;;;20.88;5.65;;;18.70;99.90;;;;;;4994511;28;20019;-90
2023/10/07 11:24:39;;;;;;;13.57;4.90;;;18.90;99.90;;;;;;4993315;28;20030;-91
2023/10/07 11:27:08;;;;;;;16.58;5.53;;;18.90;99.90;;;;;;4995409;28;20529;-89
2023/10/07 11:29:35;;;;;;;21.52;5.05;;;18.90;99.90;;;;;;4994028;28;20083;-91
2023/10/07 11:32:06;;;;;;;11.80;5.40;;;19.00;99.90;;;;;;5009887;28;20022;-88
2023/10/07 11:34:37;;;;;;;15.48;5.35;;;19.10;99.90;;;;;;4994719;28;20015;-92
2023/10/07 11:37:13;;;;;;;15.25;5.07;;;19.20;99.90;;;;;;4994453;28;20038;-90
2023/10/07 11:39:45;;;;;;;18.90;5.75;;;19.30;99.90;;;;;;5000190;28;20026;-92
2023/10/07 11:42:13;;;;;;;11.95;5.10;;;19.40;99.90;;;;;;4999786;28;20034;-89
2023/10/07 11:44:41;;;;;;;19.63;5.40;;;19.50;99.90;;;;;;4998250;28;20509;-89
2023/10/07 11:47:07;;;;;;;15.13;5.35;;;19.60;99.90;;;;;;4995211;28;20039;-91
2023/10/07 11:49:37;;;;;;;12.70;4.18;;;19.80;99.90;;;;;;4994112;28;20037;-90
2023/10/07 11:52:06;;;;;;;15.48;4.95;;;20.00;99.90;;;;;;4993809;28;20026;-89
2023/10/07 11:54:37;;;;;;;16.42;5.40;;;20.20;99.90;;;;;;4993685;28;20149;-89
2023/10/07 11:57:05;;;;;;;18.90;5.05;;;20.40;99.90;;;;;;4993696;28;20387;-90
2023/10/07 11:59:31;;;;;;;14.43;5.15;;;20.60;99.90;;;;;;4993478;28;20117;-90
2023/10/07 12:01:58;;;;;;;14.48;4.47;;;20.70;99.90;;;;;;4994238;28;20026;-89
2023/10/07 12:04:23;;;;;;;21.40;5.10;;;20.70;99.90;;;;;;4993924;28;20026;-89
2023/10/07 12:06:50;;;;;;;12.95;4.78;;;20.80;99.90;;;;;;4993110;28;20023;-90
2023/10/07 12:09:21;;;;;;;14.82;4.32;;;21.00;99.90;;;;;;4994935;28;20088;-89
2023/10/07 12:11:48;;;;;;;18.50;5.38;;;21.10;99.90;;;;;;4993413;28;20026;-90
2023/10/07 12:14:18;;;;;;;17.83;4.55;;;21.10;99.90;;;;;;4994636;28;20514;-88
2023/10/07 12:16:44;;;;;;;14.38;4.78;;;21.30;99.90;;;;;;4991713;28;20027;-88
2023/10/07 12:19:17;;;;;;;15.63;4.68;;;21.40;99.90;;;;;;4992893;28;20050;-88
2023/10/07 12:21:44;;;;;;;13.77;3.72;;;21.50;99.90;;;;;;4992731;28;20050;-89
2023/10/07 12:24:09;;;;;;;12.55;4.72;;;21.50;99.90;;;;;;4991902;28;20038;-91
2023/10/07 12:26:36;;;;;;;13.70;4.40;;;21.50;99.90;;;;;;4990305;28;20018;-91
2023/10/07 12:29:01;;;;;;;14.35;4.60;;;21.70;99.90;;;;;;4989779;28;20167;-90
2023/10/07 12:31:27;;;;;;;15.90;4.90;;;21.90;99.90;;;;;;4992511;28;20030;-89
2023/10/07 12:33:55;;;;;;;15.90;4.93;;;22.10;99.90;;;;;;4991827;28;20019;-90
2023/10/07 12:36:20;;;;;;;15.98;4.95;;;22.20;99.90;;;;;;4991831;28;20072;-90
2023/10/07 12:38:46;;;;;;;14.07;4.30;;;22.40;99.90;;;;;;4991811;28;20069;-89
2023/10/07 12:41:16;;;;;;;18.33;4.35;;;22.60;99.90;;;;;;4991843;28;20050;-89
2023/10/07 12:43:41;;;;;;;13.77;4.80;;;22.80;99.90;;;;;;4993529;28;20562;-90
2023/10/07 12:46:09;;;;;;;14.27;4.10;;;23.00;99.90;;;;;;4991951;28;20125;-90
2023/10/07 12:48:40;;;;;;;13.27;4.65;;;23.20;99.90;;;;;;4993325;28;20549;-90
2023/10/07 12:51:08;;;;;;;15.57;4.28;;;23.50;99.90;;;;;;4993484;28;20034;-90
2023/10/07 12:53:35;;;;;;;17.20;3.80;;;23.70;99.90;;;;;;4992478;28;20030;-91
2023/10/07 12:56:17;;;;;;;12.93;4.00;;;23.90;99.90;;;;;;4993796;28;20098;-90
2023/10/07 12:58:46;;;;;;;13.65;3.95;;;24.10;98.60;;;;;;4993223;28;20038;-90
2023/10/07 13:01:12;;;;;;;20.02;4.60;;;24.20;97.50;;;;;;4992676;28;20222;-91
2023/10/07 13:03:44;;;;;;;10.00;3.83;;;24.30;96.60;;;;;;4992640;28;20022;-91
2023/10/07 13:06:11;;;;;;;11.15;4.18;;;24.50;95.90;;;;;;4993905;28;20038;-92
2023/10/07 13:08:41;;;;;;;21.45;4.63;;;24.70;94.90;;;;;;4992688;28;20136;-90
2023/10/07 13:11:14;;;;;;;16.10;3.90;;;24.80;94.40;;;;;;4993816;28;20520;-90
2023/10/07 13:13:40;;;;;;;13.82;4.72;;;25.00;93.90;;;;;;4993805;28;20073;-89
2023/10/07 13:16:08;;;;;;;9.68;4.47;;;25.20;92.90;;;;;;4997847;28;20054;-89
2023/10/07 13:18:35;;;;;;;12.07;3.92;;;25.20;92.40;;;;;;5013787;28;20037;-89
2023/10/07 13:21:07;;;;;;;13.40;4.82;;;25.30;92.30;;;;;;4995767;28;20113;-89
2023/10/07 13:23:38;;;;;;;15.52;3.78;;;25.50;91.50;;;;;;4996234;28;20034;-91
2023/10/07 13:26:08;;;;;;;13.00;4.35;;;25.60;90.60;;;;;;4996362;28;20085;-93
2023/10/07 13:28:38;;;;;;;16.33;3.80;;;25.40;89.60;;;;;;4996844;28;20026;-90
2023/10/07 13:31:08;;;;;;;14.60;3.93;;;25.40;90.10;;;;;;4997931;28;20037;-92
2023/10/07 13:33:36;;;;;;;16.88;4.30;;;25.60;90.00;;;;;;4996650;28;20042;-92
2023/10/07 13:36:02;;;;;;;17.10;3.95;;;25.60;89.30;;;;;;4997109;28;20117;-93
2023/10/07 13:38:29;;;;;;;19.15;4.80;;;25.70;89.00;;;;;;4995974;28;20034;-92
2023/10/07 13:40:57;;;;;;;14.85;3.80;;;25.80;88.50;;;;;;4996955;28;20077;-91
2023/10/07 13:43:23;;;;;;;12.25;3.80;;;25.80;88.10;;;;;;4994934;28;20078;-91
2023/10/07 13:45:53;;;;;;;12.27;3.80;;;26.00;87.60;;;;;;4996857;28;20109;-91
2023/10/07 13:48:18;;;;;;;8.10;3.10;;;26.10;86.80;;;;;;5019026;28;20012;-90